Time;durP1;ratioP1;P1;durP2;ratioP2;P2;SDS_P1;SDS_P2;PMS_P1;PMS_P2;Temp;Humidity;BMP_temperature;BMP_pressure;BME280_temperature;BME280_humidity;BME280_pressure;Samples;Min_cycle;Max_cycle;Signal;HPM_P1;HPM_P2
2023/03/31 00:01:34;;;;;;;25.15;4.93;;;;;;;;;;5041625;28;20568;-44
2023/03/31 00:04:03;;;;;;;11.68;3.78;;;;;;;;;;5045324;28;20123;-45
2023/03/31 00:06:31;;;;;;;14.18;3.85;;;;;;;;;;5043359;28;20064;-47
2023/03/31 00:09:00;;;;;;;16.00;5.05;;;;;;;;;;5045728;28;20551;-42
2023/03/31 00:11:28;;;;;;;15.40;3.97;;;;;;;;;;5043955;28;20467;-44
2023/03/31 00:13:53;;;;;;;18.50;4.20;;;;;;;;;;5044048;28;20497;-42
2023/03/31 00:16:18;;;;;;;13.57;4.13;;;;;;;;;;5044529;28;20036;-46
2023/03/31 00:18:46;;;;;;;15.73;3.88;;;;;;;;;;5042225;28;20090;-43
2023/03/31 00:21:32;;;;;;;19.05;5.32;;;;;;;;;;5040523;28;20524;-47
2023/03/31 00:24:05;;;;;;;11.98;4.38;;;;;;;;;;5043210;28;20045;-45
2023/03/31 00:26:32;;;;;;;14.23;4.22;;;;;;;;;;5041182;28;20079;-44
2023/03/31 00:28:58;;;;;;;19.27;4.45;;;;;;;;;;5045352;28;20087;-48
2023/03/31 00:31:23;;;;;;;17.88;4.13;;;;;;;;;;5051280;28;20033;-44
2023/03/31 00:33:49;;;;;;;19.17;4.30;;;;;;;;;;5064273;28;20031;-45
2023/03/31 00:36:20;;;;;;;16.15;4.72;;;;;;;;;;5061007;28;20032;-47
2023/03/31 00:38:46;;;;;;;23.02;4.40;;;;;;;;;;5056090;28;20036;-43
2023/03/31 00:41:12;;;;;;;17.67;4.28;;;;;;;;;;5058899;28;20642;-41
2023/03/31 00:43:38;;;;;;;17.30;5.00;;;;;;;;;;5060224;28;20028;-47
2023/03/31 00:46:06;;;;;;;10.65;4.43;;;;;;;;;;5057157;28;20064;-44
2023/03/31 00:48:33;;;;;;;21.45;4.78;;;;;;;;;;5059337;28;20021;-42
2023/03/31 00:51:04;;;;;;;13.32;4.00;;;;;;;;;;5062787;28;20393;-43
2023/03/31 00:53:31;;;;;;;19.98;5.15;;;;;;;;;;5055581;28;20052;-44
2023/03/31 00:56:03;;;;;;;8.50;4.35;;;;;;;;;;5052807;28;20045;-51
2023/03/31 00:58:32;;;;;;;21.25;4.85;;;;;;;;;;5044182;28;20032;-42
2023/03/31 01:01:02;;;;;;;17.65;3.97;;;;;;;;;;5048694;28;20044;-42
2023/03/31 01:03:32;;;;;;;11.63;4.07;;;;;;;;;;5049138;28;20040;-44
2023/03/31 01:06:02;;;;;;;18.88;4.15;;;;;;;;;;5044968;28;20707;-42
2023/03/31 01:08:28;;;;;;;18.15;4.40;;;;;;;;;;5048736;28;20111;-43
2023/03/31 01:10:58;;;;;;;12.68;3.65;;;;;;;;;;5046978;28;20135;-42
2023/03/31 01:13:25;;;;;;;17.65;3.95;;;;;;;;;;5049205;28;20397;-43
2023/03/31 01:15:50;;;;;;;14.88;4.03;;;;;;;;;;5047252;28;20382;-48
2023/03/31 01:18:19;;;;;;;12.02;3.58;;;;;;;;;;5047166;28;20036;-50
2023/03/31 01:21:17;;;;;;;10.38;3.40;;;;;;;;;;5045101;28;20069;-46
2023/03/31 01:24:20;;;;;;;12.88;3.38;;;;;;;;;;5047963;28;20052;-46
2023/03/31 01:27:01;;;;;;;8.40;3.63;;;;;;;;;;5056529;28;20048;-44
2023/03/31 01:29:32;;;;;;;17.02;4.85;;;;;;;;;;5063789;28;20051;-42
2023/03/31 01:32:36;;;;;;;10.47;3.53;;;;;;;;;;5062833;28;20040;-43
2023/03/31 01:35:31;;;;;;;15.10;3.85;;;;;;;;;;5066294;28;20429;-47
2023/03/31 01:38:15;;;;;;;14.77;5.22;;;;;;;;;;5061352;28;20096;-41
2023/03/31 01:40:53;;;;;;;15.48;4.10;;;;;;;;;;5057696;28;20147;-48
2023/03/31 01:44:04;;;;;;;12.68;3.97;;;;;;;;;;5044735;28;20036;-42
2023/03/31 01:46:35;;;;;;;15.05;3.47;;;;;;;;;;5047377;28;20037;-42
2023/03/31 01:49:16;;;;;;;16.25;3.75;;;;;;;;;;5048682;28;20029;-47
2023/03/31 01:51:44;;;;;;;14.75;3.83;;;;;;;;;;5045219;28;20049;-42
2023/03/31 01:54:26;;;;;;;13.35;3.83;;;;;;;;;;5039129;28;20036;-47
2023/03/31 01:57:04;;;;;;;10.27;3.47;;;;;;;;;;5043496;28;20190;-46
2023/03/31 01:59:48;;;;;;;9.93;3.28;;;;;;;;;;5041956;28;20446;-44
2023/03/31 02:02:25;;;;;;;10.82;4.18;;;;;;;;;;5047620;28;20045;-44
2023/03/31 02:05:09;;;;;;;13.15;3.47;;;;;;;;;;5046070;28;20071;-41
2023/03/31 02:07:55;;;;;;;16.58;4.22;;;;;;;;;;5043896;28;20044;-44
2023/03/31 02:10:23;;;;;;;15.23;4.20;;;;;;;;;;5040701;28;20128;-44
2023/03/31 02:12:50;;;;;;;11.32;3.85;;;;;;;;;;5038985;28;20485;-42
2023/03/31 02:15:22;;;;;;;9.73;3.75;;;;;;;;;;5047020;28;20033;-43
2023/03/31 02:17:53;;;;;;;15.90;3.78;;;;;;;;;;5067829;28;20024;-42
2023/03/31 02:20:21;;;;;;;14.07;4.20;;;;;;;;;;5060968;28;20452;-41
2023/03/31 02:22:50;;;;;;;13.25;4.28;;;;;;;;;;5047384;28;20497;-47
2023/03/31 02:25:20;;;;;;;14.88;4.10;;;;;;;;;;5046938;28;20039;-44
2023/03/31 02:27:52;;;;;;;11.40;3.80;;;;;;;;;;5045632;28;20052;-44
2023/03/31 02:30:18;;;;;;;9.95;3.90;;;;;;;;;;5047405;28;20037;-46
2023/03/31 02:32:45;;;;;;;8.82;3.90;;;;;;;;;;5048094;28;20421;-44
2023/03/31 02:35:19;;;;;;;11.05;4.45;;;;;;;;;;5048795;28;20036;-45
2023/03/31 02:37:45;;;;;;;11.25;4.47;;;;;;;;;;5061842;28;20557;-45
2023/03/31 02:40:20;;;;;;;19.73;4.45;;;;;;;;;;5065458;28;20028;-41
2023/03/31 02:42:46;;;;;;;13.73;3.95;;;;;;;;;;5060102;28;20029;-45
2023/03/31 02:45:36;;;;;;;14.18;4.03;;;;;;;;;;5059631;28;20119;-42
2023/03/31 02:48:02;;;;;;;11.32;3.75;;;;;;;;;;5064310;28;20035;-43
2023/03/31 02:50:37;;;;;;;14.80;4.13;;;;;;;;;;5063391;28;20520;-44
2023/03/31 02:53:18;;;;;;;12.18;4.40;;;;;;;;;;5067182;28;20029;-42
2023/03/31 02:55:57;;;;;;;17.40;3.53;;;;;;;;;;5057569;28;20124;-42
2023/03/31 02:58:58;;;;;;;18.08;3.90;;;;;;;;;;5066222;28;20125;-46
2023/03/31 03:01:54;;;;;;;12.82;3.75;;;;;;;;;;5058576;28;20127;-43
2023/03/31 03:04:57;;;;;;;16.50;3.42;;;;;;;;;;5057928;28;20638;-43
2023/03/31 03:07:46;;;;;;;10.88;3.47;;;;;;;;;;5059513;28;20037;-41
2023/03/31 03:10:45;;;;;;;18.70;4.28;;;;;;;;;;5062876;28;20145;-45
2023/03/31 03:13:10;;;;;;;8.93;3.85;;;;;;;;;;5012512;28;20061;-46
2023/03/31 03:15:43;;;;;;;15.52;4.68;;;;;;;;;;5013720;28;20513;-42
2023/03/31 03:18:09;;;;;;;15.32;5.05;;;;;;;;;;5013247;28;20606;-42
2023/03/31 03:20:34;;;;;;;13.52;4.07;;;;;;;;;;5010987;28;20061;-48
2023/03/31 03:23:00;;;;;;;8.65;3.30;;;;;;;;;;5015769;28;20062;-48
2023/03/31 03:25:26;;;;;;;13.75;4.18;;;;;;;;;;5015179;28;20038;-45
2023/03/31 03:27:54;;;;;;;13.45;3.85;;;;;;;;;;5012609;28;20111;-45
2023/03/31 03:30:20;;;;;;;11.63;3.38;;;;;;;;;;5017079;28;20402;-45
2023/03/31 03:32:46;;;;;;;16.05;3.92;;;;;;;;;;5010739;28;20033;-42
2023/03/31 03:35:11;;;;;;;15.43;3.63;;;;;;;;;;5016741;28;20099;-41
2023/03/31 03:37:37;;;;;;;9.98;3.45;;;;;;;;;;5013496;28;20049;-41
2023/03/31 03:40:07;;;;;;;12.20;3.75;;;;;;;;;;5016643;28;20038;-44
2023/03/31 03:42:33;;;;;;;13.90;4.07;;;;;;;;;;5016861;28;20046;-43
2023/03/31 03:44:58;;;;;;;8.52;3.03;;;;;;;;;;5014142;28;20121;-40
2023/03/31 03:47:24;;;;;;;10.38;3.10;;;;;;;;;;5012609;28;20592;-46
2023/03/31 03:49:49;;;;;;;15.75;3.97;;;;;;;;;;5028190;28;20036;-42
2023/03/31 03:52:15;;;;;;;12.32;3.63;;;;;;;;;;5057473;28;20021;-45
2023/03/31 03:54:41;;;;;;;16.52;3.63;;;;;;;;;;5059517;28;20029;-44
2023/03/31 03:57:06;;;;;;;14.68;3.58;;;;;;;;;;5060725;28;20382;-43
2023/03/31 03:59:32;;;;;;;14.63;3.55;;;;;;;;;;5062615;28;20118;-44
2023/03/31 04:01:57;;;;;;;8.48;3.13;;;;;;;;;;5063299;28;20040;-45
2023/03/31 04:04:23;;;;;;;11.15;3.20;;;;;;;;;;5056982;28;20105;-48
2023/03/31 04:06:48;;;;;;;16.55;3.85;;;;;;;;;;5061510;28;20066;-41
2023/03/31 04:09:14;;;;;;;15.55;3.97;;;;;;;;;;5059566;28;20087;-43
2023/03/31 04:11:40;;;;;;;15.70;3.25;;;;;;;;;;5063076;28;20036;-42
2023/03/31 04:14:05;;;;;;;9.57;3.42;;;;;;;;;;5060434;28;20717;-44
2023/03/31 04:16:33;;;;;;;11.10;3.10;;;;;;;;;;5062918;28;20041;-43
2023/03/31 04:19:02;;;;;;;11.77;3.35;;;;;;;;;;5062743;28;20033;-47
2023/03/31 04:21:29;;;;;;;13.82;3.17;;;;;;;;;;5064290;28;20044;-42
2023/03/31 04:24:00;;;;;;;11.35;3.65;;;;;;;;;;5063102;28;20037;-51
2023/03/31 04:26:41;;;;;;;11.25;3.05;;;;;;;;;;5061675;28;20037;-44
2023/03/31 04:29:11;;;;;;;9.45;3.15;;;;;;;;;;5058160;28;20401;-43
2023/03/31 04:31:37;;;;;;;13.77;3.35;;;;;;;;;;5064036;28;20044;-46
2023/03/31 04:34:05;;;;;;;12.55;3.88;;;;;;;;;;5062168;28;20107;-42
2023/03/31 04:36:32;;;;;;;10.95;3.00;;;;;;;;;;5058106;28;20485;-43
2023/03/31 04:38:58;;;;;;;8.98;2.92;;;;;;;;;;5062132;28;20170;-42
2023/03/31 04:41:26;;;;;;;8.35;3.08;;;;;;;;;;5061157;28;20037;-43
2023/03/31 04:43:52;;;;;;;9.60;3.15;;;;;;;;;;5060058;28;20389;-41
2023/03/31 04:46:17;;;;;;;9.73;2.80;;;;;;;;;;5058539;28;20055;-42
2023/03/31 04:48:42;;;;;;;14.57;3.50;;;;;;;;;;5058863;28;20037;-44
2023/03/31 04:51:08;;;;;;;10.20;3.25;;;;;;;;;;5059346;28;20741;-45
2023/03/31 04:53:34;;;;;;;11.27;3.33;;;;;;;;;;5060202;28;20021;-44
2023/03/31 04:55:59;;;;;;;11.43;3.08;;;;;;;;;;5059582;28;20037;-41
2023/03/31 04:58:25;;;;;;;12.30;3.10;;;;;;;;;;5056705;28;20025;-43
2023/03/31 05:00:51;;;;;;;10.68;3.67;;;;;;;;;;5055687;28;20482;-42
2023/03/31 05:03:17;;;;;;;6.80;2.88;;;;;;;;;;5060345;28;20028;-42
2023/03/31 05:05:42;;;;;;;8.20;3.35;;;;;;;;;;5056718;28;20048;-45
2023/03/31 05:08:08;;;;;;;12.57;3.22;;;;;;;;;;5059375;28;20017;-44
2023/03/31 05:10:33;;;;;;;13.20;3.40;;;;;;;;;;5059499;28;20051;-45
2023/03/31 05:12:59;;;;;;;8.55;2.80;;;;;;;;;;5059326;28;20041;-41
2023/03/31 05:15:24;;;;;;;11.25;3.38;;;;;;;;;;5057363;28;20532;-41
2023/03/31 05:17:51;;;;;;;14.98;3.78;;;;;;;;;;5048982;28;20035;-46
2023/03/31 05:20:17;;;;;;;12.02;3.22;;;;;;;;;;5048631;28;20040;-45
2023/03/31 05:22:42;;;;;;;11.57;3.70;;;;;;;;;;5063008;28;20393;-44
2023/03/31 05:25:08;;;;;;;13.45;4.07;;;;;;;;;;5059597;28;20021;-44
2023/03/31 05:27:34;;;;;;;10.77;3.33;;;;;;;;;;5058505;28;20040;-41
2023/03/31 05:30:01;;;;;;;8.15;3.05;;;;;;;;;;5061552;28;20028;-41
2023/03/31 05:32:27;;;;;;;6.38;3.25;;;;;;;;;;5056255;28;20194;-45
2023/03/31 05:34:55;;;;;;;7.15;3.03;;;;;;;;;;5062875;28;20033;-41
2023/03/31 05:37:22;;;;;;;7.63;3.15;;;;;;;;;;5054512;28;20123;-41
2023/03/31 05:39:48;;;;;;;13.00;3.15;;;;;;;;;;5061149;28;20044;-40
2023/03/31 05:42:13;;;;;;;12.27;3.53;;;;;;;;;;5053074;28;20036;-41
2023/03/31 05:44:39;;;;;;;13.05;3.53;;;;;;;;;;5055333;28;20021;-41
2023/03/31 05:47:04;;;;;;;10.65;3.53;;;;;;;;;;5058341;28;20041;-41
2023/03/31 05:49:30;;;;;;;12.13;3.72;;;;;;;;;;5060389;28;20116;-43
2023/03/31 05:51:55;;;;;;;11.52;3.40;;;;;;;;;;5065227;28;20135;-51
2023/03/31 05:54:21;;;;;;;10.60;2.78;;;;;;;;;;5062278;28;20028;-44
2023/03/31 05:56:47;;;;;;;10.70;3.13;;;;;;;;;;5059235;28;20045;-42
2023/03/31 05:59:13;;;;;;;12.02;3.50;;;;;;;;;;5060260;28;20020;-45
2023/03/31 06:01:38;;;;;;;15.13;4.00;;;;;;;;;;5064146;28;20036;-44
2023/03/31 06:04:04;;;;;;;9.98;3.13;;;;;;;;;;5057308;28;20039;-47
2023/03/31 06:06:29;;;;;;;10.57;4.10;;;;;;;;;;5060833;28;20025;-44
2023/03/31 06:08:55;;;;;;;7.90;3.28;;;;;;;;;;5055110;28;20201;-43
2023/03/31 06:11:21;;;;;;;9.40;3.60;;;;;;;;;;5056717;28;20036;-47
2023/03/31 06:13:47;;;;;;;8.18;4.28;;;;;;;;;;5056956;28;20051;-41
2023/03/31 06:16:14;;;;;;;12.18;3.88;;;;;;;;;;5057325;28;20033;-41
2023/03/31 06:18:40;;;;;;;14.50;3.78;;;;;;;;;;5057204;28;20051;-45
2023/03/31 06:21:06;;;;;;;15.57;3.83;;;;;;;;;;5063875;28;20045;-41
2023/03/31 06:23:32;;;;;;;11.90;4.20;;;;;;;;;;5061443;28;20040;-42
2023/03/31 06:26:05;;;;;;;14.05;3.67;;;;;;;;;;5054967;28;20033;-48
2023/03/31 06:28:30;;;;;;;;;;;;;;;;;;5064653;28;20111;-41
2023/03/31 06:31:16;;;;;;;10.27;3.50;;;;;;;;;;5057520;28;20491;-42
2023/03/31 06:33:42;;;;;;;8.73;3.10;;;;;;;;;;5060990;28;20035;-48
2023/03/31 06:36:09;;;;;;;12.95;3.58;;;;;;;;;;5062274;28;20044;-44
2023/03/31 06:38:37;;;;;;;12.13;3.45;;;;;;;;;;5067685;28;20033;-50
2023/03/31 06:41:03;;;;;;;15.15;3.83;;;;;;;;;;5059731;28;20673;-50
2023/03/31 06:43:28;;;;;;;9.98;3.63;;;;;;;;;;5061770;28;20048;-50
2023/03/31 06:45:54;;;;;;;19.05;4.30;;;;;;;;;;5058439;28;20063;-47
2023/03/31 06:48:20;;;;;;;11.63;3.90;;;;;;;;;;5058759;28;20025;-44
2023/03/31 06:50:45;;;;;;;12.48;3.20;;;;;;;;;;5059647;28;20047;-47
2023/03/31 06:53:11;;;;;;;9.90;3.20;;;;;;;;;;5064065;28;20493;-48
2023/03/31 06:55:37;;;;;;;13.10;3.80;;;;;;;;;;5064835;28;20037;-47
2023/03/31 06:58:03;;;;;;;12.70;3.53;;;;;;;;;;5058331;28;20020;-46
2023/03/31 07:00:30;;;;;;;17.52;4.13;;;;;;;;;;5061679;28;20036;-47
2023/03/31 07:02:55;;;;;;;7.85;3.17;;;;;;;;;;5061163;28;20132;-41
2023/03/31 07:05:26;;;;;;;12.75;3.65;;;;;;;;;;5061599;28;20047;-41
2023/03/31 07:07:56;;;;;;;13.65;3.45;;;;;;;;;;5063519;28;20028;-42
2023/03/31 07:10:23;;;;;;;9.25;3.25;;;;;;;;;;5061349;28;20394;-41
2023/03/31 07:12:48;;;;;;;11.20;3.85;;;;;;;;;;5061777;28;20052;-43
2023/03/31 07:15:14;;;;;;;12.73;3.70;;;;;;;;;;5060822;28;20032;-42
2023/03/31 07:17:40;;;;;;;16.20;4.45;;;;;;;;;;5065604;28;20032;-41
2023/03/31 07:20:15;;;;;;;12.43;3.38;;;;;;;;;;5060184;28;20045;-42
2023/03/31 07:22:43;;;;;;;15.43;4.50;;;;;;;;;;5060805;28;20574;-40
2023/03/31 07:25:10;;;;;;;16.75;3.80;;;;;;;;;;5063004;28;20032;-41
2023/03/31 07:27:37;;;;;;;11.65;3.78;;;;;;;;;;5058442;28;20036;-41
2023/03/31 07:30:12;;;;;;;12.02;3.63;;;;;;;;;;5060262;28;20033;-41
2023/03/31 07:32:39;;;;;;;17.02;3.55;;;;;;;;;;5058528;28;20036;-43
2023/03/31 07:35:10;;;;;;;13.60;3.25;;;;;;;;;;5060973;28;20473;-42
2023/03/31 07:37:36;;;;;;;7.20;3.22;;;;;;;;;;5060323;28;20028;-42
2023/03/31 07:40:04;;;;;;;14.18;3.80;;;;;;;;;;5061290;28;20035;-41
2023/03/31 07:42:30;;;;;;;11.82;3.00;;;;;;;;;;5059824;28;20024;-43
2023/03/31 07:44:55;;;;;;;10.45;3.03;;;;;;;;;;5075532;28;20459;-43
2023/03/31 07:47:20;;;;;;;8.30;3.42;;;;;;;;;;5050343;28;20037;-41
2023/03/31 07:49:47;;;;;;;15.15;3.42;;;;;;;;;;5054447;28;20025;-41
2023/03/31 07:52:14;;;;;;;22.08;4.10;;;;;;;;;;5065411;28;20100;-42
2023/03/31 07:54:40;;;;;;;14.20;4.40;;;;;;;;;;5062325;28;20047;-41
2023/03/31 07:57:07;;;;;;;11.77;4.32;;;;;;;;;;5060148;28;20045;-42
2023/03/31 07:59:32;;;;;;;14.23;4.85;;;;;;;;;;5065122;28;20036;-41
2023/03/31 08:01:58;;;;;;;15.60;5.38;;;;;;;;;;5060402;28;20721;-42
2023/03/31 08:04:23;;;;;;;18.90;6.70;;;;;;;;;;5060087;28;20546;-41
2023/03/31 08:06:50;;;;;;;12.75;4.80;;;;;;;;;;5059195;28;20090;-41
2023/03/31 08:09:17;;;;;;;18.55;5.40;;;;;;;;;;5060501;28;20496;-42
2023/03/31 08:11:43;;;;;;;11.65;4.15;;;;;;;;;;5062886;28;20500;-41
2023/03/31 08:14:09;;;;;;;12.45;4.50;;;;;;;;;;5057592;28;20501;-40
2023/03/31 08:16:34;;;;;;;11.55;3.88;;;;;;;;;;5058869;28;20044;-41
2023/03/31 08:19:00;;;;;;;26.30;4.70;;;;;;;;;;5056127;28;20505;-41
2023/03/31 08:21:27;;;;;;;18.45;4.15;;;;;;;;;;5060488;28;20048;-45
2023/03/31 08:23:54;;;;;;;23.92;5.43;;;;;;;;;;5060519;28;20038;-41
2023/03/31 08:26:23;;;;;;;19.08;3.65;;;;;;;;;;5062609;28;20450;-45
2023/03/31 08:28:49;;;;;;;13.88;2.97;;;;;;;;;;5060599;28;20029;-43
2023/03/31 08:31:17;;;;;;;11.07;3.47;;;;;;;;;;5060411;28;20124;-46
2023/03/31 08:33:43;;;;;;;19.90;3.80;;;;;;;;;;5061289;28;20041;-46
2023/03/31 08:36:09;;;;;;;12.95;3.45;;;;;;;;;;5058110;28;20040;-44
2023/03/31 08:38:46;;;;;;;11.45;3.40;;;;;;;;;;5062847;28;20033;-44
2023/03/31 08:41:50;;;;;;;20.45;4.15;;;;;;;;;;5057172;28;20069;-42
2023/03/31 08:44:25;;;;;;;11.82;3.42;;;;;;;;;;5055429;28;20714;-42
2023/03/31 08:46:54;;;;;;;16.65;3.80;;;;;;;;;;5057369;28;20033;-41
2023/03/31 08:49:22;;;;;;;14.23;3.88;;;;;;;;;;5059260;28;20481;-44
2023/03/31 08:51:55;;;;;;;9.23;3.03;;;;;;;;;;5059617;28;20041;-43
2023/03/31 08:54:20;;;;;;;17.75;4.70;;;;;;;;;;5055978;28;20999;-44
2023/03/31 08:56:49;;;;;;;17.48;4.50;;;;;;;;;;5059467;28;20102;-44
2023/03/31 08:59:33;;;;;;;14.35;3.53;;;;;;;;;;5057076;28;20071;-45
2023/03/31 09:02:47;;;;;;;8.15;2.95;;;;;;;;;;5052155;28;20080;-42
2023/03/31 09:05:21;;;;;;;12.68;3.97;;;;;;;;;;5054576;28;20671;-41
2023/03/31 09:07:55;;;;;;;23.73;4.82;;;;;;;;;;5062177;28;20024;-40
2023/03/31 09:10:40;;;;;;;19.95;4.50;;;;;;;;;;5051562;28;20079;-43
2023/03/31 09:13:27;;;;;;;11.80;3.42;;;;;;;;;;5051833;28;20492;-40
2023/03/31 09:16:14;;;;;;;13.32;3.60;;;;;;;;;;5053781;28;20048;-42
2023/03/31 09:18:45;;;;;;;13.65;3.63;;;;;;;;;;5048668;28;20021;-42
2023/03/31 09:21:22;;;;;;;13.57;3.40;;;;;;;;;;5056113;28;20047;-41
2023/03/31 09:23:58;;;;;;;16.38;3.47;;;;;;;;;;5080527;28;20098;-41
2023/03/31 09:26:35;;;;;;;10.73;2.92;;;;;;;;;;5059345;28;20490;-47
2023/03/31 09:29:03;;;;;;;12.85;3.40;;;;;;;;;;5065450;28;20032;-47
2023/03/31 09:31:28;;;;;;;11.48;3.38;;;;;;;;;;5064236;28;20052;-43
2023/03/31 09:34:00;;;;;;;16.73;4.15;;;;;;;;;;5066245;28;20057;-41
2023/03/31 09:36:25;;;;;;;14.10;4.20;;;;;;;;;;5066307;28;20400;-41
2023/03/31 09:38:51;;;;;;;18.40;4.95;;;;;;;;;;5064003;28;20032;-41
2023/03/31 09:41:17;;;;;;;12.20;3.17;;;;;;;;;;5062450;28;20045;-46
2023/03/31 09:43:45;;;;;;;15.00;4.90;;;;;;;;;;5067125;28;20493;-42
2023/03/31 09:46:33;;;;;;;14.70;3.83;;;;;;;;;;5060909;28;20045;-42
2023/03/31 09:49:05;;;;;;;17.25;5.25;;;;;;;;;;5065857;28;20500;-43
2023/03/31 09:51:36;;;;;;;16.25;4.15;;;;;;;;;;5062980;28;20087;-42
2023/03/31 09:54:22;;;;;;;12.70;4.18;;;;;;;;;;5065563;28;20032;-43
2023/03/31 09:56:52;;;;;;;17.02;5.38;;;;;;;;;;5062437;28;20064;-45
2023/03/31 09:59:31;;;;;;;12.77;4.28;;;;;;;;;;5062851;28;20059;-41
2023/03/31 10:02:01;;;;;;;14.85;6.05;;;;;;;;;;5062257;28;20142;-42
2023/03/31 10:04:31;;;;;;;11.95;4.22;;;;;;;;;;5060888;28;20033;-42
2023/03/31 10:06:58;;;;;;;15.30;5.00;;;;;;;;;;5055842;28;20041;-47
2023/03/31 10:09:26;;;;;;;15.68;5.22;;;;;;;;;;5058031;28;20028;-42
2023/03/31 10:12:04;;;;;;;12.45;4.03;;;;;;;;;;5061015;28;20032;-44
2023/03/31 10:14:40;;;;;;;12.75;4.20;;;;;;;;;;5065382;28;20041;-44
2023/03/31 10:17:06;;;;;;;14.45;4.00;;;;;;;;;;5058599;28;20684;-44
2023/03/31 10:19:36;;;;;;;14.07;4.18;;;;;;;;;;5064149;28;20420;-49
2023/03/31 10:22:25;;;;;;;15.43;4.32;;;;;;;;;;5061139;28;20043;-44
2023/03/31 10:24:51;;;;;;;19.92;4.15;;;;;;;;;;5055907;28;20087;-38
2023/03/31 10:27:25;;;;;;;12.75;3.90;;;;;;;;;;5059165;28;20036;-42
2023/03/31 10:29:53;;;;;;;10.07;3.90;;;;;;;;;;5065968;28;20030;-48
2023/03/31 10:32:19;;;;;;;21.20;5.15;;;;;;;;;;5061543;28;20032;-48
2023/03/31 10:34:45;;;;;;;11.45;3.63;;;;;;;;;;5060904;28;20666;-48
2023/03/31 10:37:16;;;;;;;12.95;4.03;;;;;;;;;;5061880;28;20404;-42
2023/03/31 10:39:42;;;;;;;14.68;3.85;;;;;;;;;;5063132;28;20040;-44
2023/03/31 10:42:08;;;;;;;17.13;3.72;;;;;;;;;;5063385;28;20047;-45
2023/03/31 10:44:36;;;;;;;15.65;3.70;;;;;;;;;;5061969;28;20025;-45
2023/03/31 10:47:05;;;;;;;15.25;5.22;;;;;;;;;;5062606;28;20136;-44
2023/03/31 10:49:37;;;;;;;16.27;4.03;;;;;;;;;;5061408;28;20021;-48
2023/03/31 10:52:02;;;;;;;14.68;4.32;;;;;;;;;;5056762;28;20528;-41
2023/03/31 10:54:28;;;;;;;15.65;4.50;;;;;;;;;;5061403;28;20032;-46
2023/03/31 10:57:00;;;;;;;13.45;3.92;;;;;;;;;;5054053;28;20655;-41
2023/03/31 10:59:35;;;;;;;18.90;4.53;;;;;;;;;;5053745;28;20153;-48
2023/03/31 11:02:22;;;;;;;12.65;4.07;;;;;;;;;;5053767;28;20052;-42
2023/03/31 11:04:57;;;;;;;18.45;5.03;;;;;;;;;;5058467;28;20028;-43
2023/03/31 11:07:41;;;;;;;11.43;4.22;;;;;;;;;;5059993;28;20045;-42
2023/03/31 11:10:35;;;;;;;18.30;3.95;;;;;;;;;;5065220;28;20489;-43
2023/03/31 11:13:24;;;;;;;11.07;4.10;;;;;;;;;;5063238;28;20049;-45
2023/03/31 11:16:01;;;;;;;23.95;5.65;;;;;;;;;;5066194;28;20129;-43
2023/03/31 11:18:45;;;;;;;16.88;5.00;;;;;;;;;;5059365;28;20051;-44
2023/03/31 11:21:29;;;;;;;14.45;4.60;;;;;;;;;;5055707;28;20055;-47
2023/03/31 11:24:48;;;;;;;13.55;3.80;;;;;;;;;;5057734;28;20020;-44
2023/03/31 11:27:29;;;;;;;14.93;3.53;;;;;;;;;;5019298;28;20873;-42
2023/03/31 11:30:03;;;;;;;15.77;4.78;;;;;;;;;;5022619;28;20120;-47
2023/03/31 11:33:22;;;;;;;17.80;4.13;;;;;;;;;;5020705;28;20049;-45
2023/03/31 11:35:53;;;;;;;15.02;3.97;;;;;;;;;;4977795;28;20043;-41
2023/03/31 11:38:32;;;;;;;14.93;4.10;;;;;;;;;;4964033;28;20098;-45
2023/03/31 11:41:08;;;;;;;11.27;3.83;;;;;;;;;;4965039;28;20476;-47
2023/03/31 11:43:44;;;;;;;9.40;4.13;;;;;;;;;;4963693;28;20109;-42
2023/03/31 11:46:19;;;;;;;11.52;4.10;;;;;;;;;;4965924;28;20185;-44
2023/03/31 11:48:56;;;;;;;18.42;4.40;;;;;;;;;;4966907;28;20085;-44
2023/03/31 11:51:43;;;;;;;13.38;4.43;;;;;;;;;;4972922;28;20053;-44
2023/03/31 11:54:19;;;;;;;14.27;4.75;;;;;;;;;;4981766;28;20046;-45
2023/03/31 11:56:45;;;;;;;15.27;5.35;;;;;;;;;;4983114;28;20442;-45
2023/03/31 11:59:15;;;;;;;10.30;3.92;;;;;;;;;;4980453;28;20046;-46
2023/03/31 12:01:56;;;;;;;16.70;4.43;;;;;;;;;;5000073;28;20060;-44
2023/03/31 12:04:37;;;;;;;16.00;4.85;;;;;;;;;;4999581;28;20108;-41
2023/03/31 12:07:18;;;;;;;14.13;4.20;;;;;;;;;;5043262;28;20051;-45
2023/03/31 12:09:54;;;;;;;18.20;5.53;;;;;;;;;;5060463;28;20037;-45
2023/03/31 12:12:56;;;;;;;17.58;5.10;;;;;;;;;;5059182;28;20036;-45
2023/03/31 12:15:45;;;;;;;17.40;5.07;;;;;;;;;;5073960;28;20548;-42
2023/03/31 12:18:19;;;;;;;17.48;4.68;;;;;;;;;;5060044;28;20039;-43
2023/03/31 12:21:11;;;;;;;14.80;4.10;;;;;;;;;;5060323;28;20063;-44
2023/03/31 12:23:42;;;;;;;13.40;4.30;;;;;;;;;;5053382;28;20044;-48
2023/03/31 12:26:17;;;;;;;11.47;4.30;;;;;;;;;;5058623;28;20046;-46
2023/03/31 12:28:43;;;;;;;13.75;4.53;;;;;;;;;;5056219;28;20434;-45
2023/03/31 12:31:19;;;;;;;13.38;4.78;;;;;;;;;;5060874;28;20032;-48
2023/03/31 12:34:07;;;;;;;8.38;4.10;;;;;;;;;;5079268;28;20035;-45
2023/03/31 12:36:51;;;;;;;24.90;4.88;;;;;;;;;;5057234;28;20116;-48
2023/03/31 12:39:18;;;;;;;13.90;4.65;;;;;;;;;;5058865;28;20124;-42
2023/03/31 12:42:02;;;;;;;10.38;4.15;;;;;;;;;;5057428;28;20501;-42
2023/03/31 12:44:59;;;;;;;11.00;4.07;;;;;;;;;;5057331;28;20033;-43
2023/03/31 12:47:34;;;;;;;10.68;4.13;;;;;;;;;;5029135;28;20086;-42
2023/03/31 12:50:15;;;;;;;9.98;4.00;;;;;;;;;;5036754;28;20138;-41
2023/03/31 12:52:47;;;;;;;15.80;4.78;;;;;;;;;;5038162;28;20025;-46
2023/03/31 12:55:25;;;;;;;12.18;4.05;;;;;;;;;;5041782;28;20136;-41
2023/03/31 12:57:51;;;;;;;14.38;4.13;;;;;;;;;;5045225;28;20031;-46
2023/03/31 13:00:19;;;;;;;16.33;5.40;;;;;;;;;;5045292;28;20033;-42
2023/03/31 13:02:46;;;;;;;14.25;5.13;;;;;;;;;;5053352;28;20087;-43
2023/03/31 13:05:36;;;;;;;12.23;4.13;;;;;;;;;;5040552;28;20039;-42
2023/03/31 13:08:03;;;;;;;14.15;4.47;;;;;;;;;;5044715;28;20339;-42
2023/03/31 13:10:30;;;;;;;18.58;5.53;;;;;;;;;;5041623;28;20041;-44
2023/03/31 13:13:13;;;;;;;17.30;4.80;;;;;;;;;;5044498;28;20049;-46
2023/03/31 13:15:39;;;;;;;11.35;4.70;;;;;;;;;;5046257;28;20096;-41
2023/03/31 13:18:06;;;;;;;21.73;6.00;;;;;;;;;;5044228;28;20017;-46
2023/03/31 13:20:39;;;;;;;16.95;5.65;;;;;;;;;;5043435;28;20086;-48
2023/03/31 13:23:10;;;;;;;12.98;5.47;;;;;;;;;;5042706;28;20029;-43
2023/03/31 13:25:36;;;;;;;10.18;4.50;;;;;;;;;;5042324;28;20037;-41
2023/03/31 13:28:09;;;;;;;16.60;4.88;;;;;;;;;;5042731;28;20035;-47
2023/03/31 13:30:35;;;;;;;18.77;5.13;;;;;;;;;;5042344;28;20037;-45
2023/03/31 13:33:56;;;;;;;14.55;4.78;;;;;;;;;;5044439;28;20021;-44
2023/03/31 13:36:30;;;;;;;14.40;4.45;;;;;;;;;;5034679;28;20037;-40
2023/03/31 13:39:17;;;;;;;18.50;3.90;;;;;;;;;;5043937;28;20700;-46
2023/03/31 13:41:55;;;;;;;16.83;4.20;;;;;;;;;;5037112;28;20439;-45
2023/03/31 13:44:32;;;;;;;17.75;3.95;;;;;;;;;;5046746;28;20029;-44
2023/03/31 13:47:27;;;;;;;15.85;4.35;;;;;;;;;;5043677;28;20045;-43
2023/03/31 13:50:07;;;;;;;10.38;3.78;;;;;;;;;;5043127;28;20021;-46
2023/03/31 13:52:57;;;;;;;14.40;4.53;;;;;;;;;;5041073;28;20073;-43
2023/03/31 13:55:34;;;;;;;9.85;3.53;;;;;;;;;;5042669;28;20045;-45
2023/03/31 13:58:18;;;;;;;15.98;3.72;;;;;;;;;;5041504;28;20020;-48
2023/03/31 14:01:19;;;;;;;9.68;3.35;;;;;;;;;;5045012;28;20044;-48
2023/03/31 14:04:06;;;;;;;9.75;2.97;;;;;;;;;;5044249;28;20049;-41
2023/03/31 14:06:38;;;;;;;11.73;3.53;;;;;;;;;;5041504;28;20501;-45
2023/03/31 14:09:07;;;;;;;13.45;3.42;;;;;;;;;;5037401;28;20022;-42
2023/03/31 14:11:33;;;;;;;15.50;4.05;;;;;;;;;;5045545;28;20045;-48
2023/03/31 14:14:14;;;;;;;15.82;4.03;;;;;;;;;;5039298;28;20393;-43
2023/03/31 14:16:45;;;;;;;10.80;4.40;;;;;;;;;;5041219;28;20036;-42
2023/03/31 14:19:23;;;;;;;15.85;4.30;;;;;;;;;;5041016;28;20097;-46
2023/03/31 14:22:05;;;;;;;10.77;4.00;;;;;;;;;;5039601;28;20751;-44
2023/03/31 14:24:44;;;;;;;18.05;4.32;;;;;;;;;;5042230;28;20116;-43
2023/03/31 14:27:43;;;;;;;15.70;4.53;;;;;;;;;;5042979;28;20047;-45
2023/03/31 14:30:38;;;;;;;13.32;4.63;;;;;;;;;;5039514;28;20045;-42
2023/03/31 14:33:26;;;;;;;14.55;4.93;;;;;;;;;;5040892;28;20037;-45
2023/03/31 14:36:10;;;;;;;19.77;5.35;;;;;;;;;;5040672;28;20048;-43
2023/03/31 14:38:36;;;;;;;15.25;4.55;;;;;;;;;;5042709;28;20126;-42
2023/03/31 14:41:03;;;;;;;15.70;4.95;;;;;;;;;;5030890;28;20514;-41
2023/03/31 14:43:35;;;;;;;18.85;4.10;;;;;;;;;;5024258;28;20041;-43
2023/03/31 14:46:06;;;;;;;17.48;4.65;;;;;;;;;;5023915;28;20490;-44
2023/03/31 14:48:42;;;;;;;15.20;4.15;;;;;;;;;;5025614;28;20178;-42
2023/03/31 14:51:08;;;;;;;13.35;4.10;;;;;;;;;;5031118;28;20073;-43
2023/03/31 14:53:35;;;;;;;18.17;4.70;;;;;;;;;;5043722;28;20029;-41
2023/03/31 14:56:07;;;;;;;16.50;4.63;;;;;;;;;;5036213;28;20045;-43
2023/03/31 14:58:45;;;;;;;16.85;4.95;;;;;;;;;;5044001;28;20109;-43
2023/03/31 15:01:16;;;;;;;12.82;4.88;;;;;;;;;;5041132;28;20174;-42
2023/03/31 15:03:42;;;;;;;14.77;5.22;;;;;;;;;;5040376;28;20059;-43